KJST/JST METAR and TAF weather

Enter ICAO airport designator
Station Type Date Time Source
KJST METAR 2019/04/19 08:54 UTC NOAA

KJST 190854Z AUTO 17013G20KT 10SM CLR 17/09 A2966 RMK AO2 SLP030 T01720094 57013


Station Type Date Time Source
KJST Decoded METAR 2019/04/19 08:54 UTC NOAA

JOHNSTOWN-CAMBRIA CO AIRPORT , PA, United States (KJST) 40-19N 078-50W 694M
Apr 19, 2019 - 04:54 AM EDT / 2019.04.19 0854 UTC
Wind: from the S (170 degrees) at 15 MPH (13 KT) gusting to 23 MPH (20 KT):0
Visibility: 10 mile(s):0
Sky conditions: clear
Temperature: 63.0 F (17.2 C)
Dew Point: 48.9 F (9.4 C)
Relative Humidity: 60%
Pressure (altimeter): 29.66 in. Hg (1004 hPa)
Pressure tendency: 0.04 inches (1.3 hPa) lower than three hours ago
ob: KJST 190854Z AUTO 17013G20KT 10SM CLR 17/09 A2966 RMK AO2 SLP030 T01720094 57013
cycle: 9

Station Type Date Time Source
KJST TAF 2019/04/19 06:59 UTC NOAA

TAF KJST 190559Z 1906/2006 17012KT P6SM SKC WS020/21040KT
FM191500 18014G22KT P6SM VCSH OVC050
FM192000 16012G20KT 4SM -SHRA VCTS OVC015CB
FM200100 15008G22KT P6SM -SHRA OVC060

Example: see airport list